createdAt,value
2022-11-04T00:02:09.543Z,4.80
2022-11-04T00:04:36.402Z,6.53
2022-11-04T00:07:23.227Z,4.82
2022-11-04T00:09:50.202Z,4.15
2022-11-04T00:12:25.974Z,8.45
2022-11-04T00:14:53.159Z,5.43
2022-11-04T00:17:20.238Z,5.20
2022-11-04T00:20:10.060Z,6.57
2022-11-04T00:22:55.880Z,7.45
2022-11-04T00:28:31.932Z,4.35
2022-11-04T00:31:19.425Z,6.80
2022-11-04T00:33:47.319Z,4.80
2022-11-04T00:36:14.110Z,6.60
2022-11-04T00:38:40.903Z,7.03
2022-11-04T00:41:26.065Z,6.78
2022-11-04T00:43:56.820Z,5.25
2022-11-04T00:46:23.701Z,4.35
2022-11-04T00:48:50.495Z,4.43
2022-11-04T00:51:17.384Z,6.20
2022-11-04T00:53:46.447Z,7.38
2022-11-04T00:56:13.267Z,7.50
2022-11-04T00:58:40.285Z,8.43
2022-11-04T01:01:17.578Z,6.43
2022-11-04T01:03:48.385Z,6.50
2022-11-04T01:06:15.492Z,6.65
2022-11-04T01:08:42.329Z,5.63
2022-11-04T01:11:09.505Z,4.93
2022-11-04T01:13:36.760Z,10.18
2022-11-04T01:16:05.460Z,5.45
2022-11-04T01:18:32.387Z,6.53
2022-11-04T01:21:02.810Z,7.32
2022-11-04T01:23:29.647Z,9.50
2022-11-04T01:25:56.562Z,6.43
2022-11-04T01:28:23.405Z,7.03
2022-11-04T01:30:50.164Z,5.88
2022-11-04T01:33:16.996Z,6.50
2022-11-04T01:35:43.770Z,3.67
2022-11-04T01:38:11.248Z,4.30
2022-11-04T01:40:39.145Z,5.25
2022-11-04T01:43:18.421Z,5.57
2022-11-04T01:45:56.428Z,3.10
2022-11-04T01:48:34.190Z,3.35
2022-11-04T01:51:01.448Z,4.32
2022-11-04T01:53:35.459Z,7.90
2022-11-04T01:56:04.400Z,4.00
2022-11-04T01:58:32.730Z,3.25
2022-11-04T02:00:59.642Z,3.83
2022-11-04T02:03:38.780Z,1.83
2022-11-04T02:06:06.688Z,2.65
2022-11-04T02:08:33.761Z,4.90
2022-11-04T02:11:02.054Z,6.38
2022-11-04T02:13:30.164Z,3.17
2022-11-04T02:16:14.444Z,3.35
2022-11-04T02:18:50.867Z,2.53
2022-11-04T02:21:54.736Z,3.22
2022-11-04T02:24:59.424Z,1.25
2022-11-04T02:28:00.176Z,3.25
2022-11-04T02:30:27.286Z,2.35
2022-11-04T02:32:59.996Z,4.68
2022-11-04T02:35:41.499Z,2.57
2022-11-04T02:38:34.889Z,11.73
2022-11-04T02:41:07.589Z,3.53
2022-11-04T02:44:14.082Z,5.47
2022-11-04T02:46:47.669Z,7.22
2022-11-04T02:52:03.086Z,7.97
2022-11-04T02:54:50.266Z,5.95
2022-11-04T02:57:22.355Z,8.00
2022-11-04T03:00:10.142Z,7.38
2022-11-04T03:02:58.656Z,7.90
2022-11-04T03:05:28.233Z,8.95
2022-11-04T03:07:56.660Z,8.00
2022-11-04T03:10:38.778Z,8.68
2022-11-04T03:13:13.808Z,11.70
2022-11-04T03:15:41.353Z,11.38
2022-11-04T03:18:24.943Z,11.52
2022-11-04T03:20:51.725Z,12.70
2022-11-04T03:23:18.526Z,9.98
2022-11-04T03:25:46.087Z,11.30
2022-11-04T03:28:34.372Z,11.82
2022-11-04T03:31:02.374Z,11.57
2022-11-04T03:33:38.742Z,10.32
2022-11-04T03:36:07.778Z,9.80
2022-11-04T03:38:35.722Z,12.05
2022-11-04T03:41:02.576Z,14.13
2022-11-04T03:43:29.327Z,12.82
2022-11-04T03:45:56.290Z,14.05
2022-11-04T03:48:23.164Z,12.45
2022-11-04T03:50:50.906Z,11.63
2022-11-04T03:53:20.405Z,14.68
2022-11-04T03:56:14.691Z,9.50
2022-11-04T04:01:48.239Z,11.18
2022-11-04T04:04:28.039Z,7.85
2022-11-04T04:07:01.257Z,11.00
2022-11-04T04:09:35.549Z,8.05
2022-11-04T04:12:14.969Z,12.35
2022-11-04T04:14:45.079Z,8.65
2022-11-04T04:17:32.512Z,7.78
2022-11-04T04:20:10.075Z,8.05
2022-11-04T04:22:54.356Z,8.38
2022-11-04T04:25:39.475Z,11.13
2022-11-04T04:28:06.525Z,7.65
2022-11-04T04:30:33.598Z,9.27
2022-11-04T04:33:03.889Z,7.50
2022-11-04T04:35:42.056Z,9.05
2022-11-04T04:38:43.341Z,7.32
2022-11-04T04:41:48.150Z,7.65
2022-11-04T04:44:42.431Z,8.18
2022-11-04T04:49:36.874Z,8.88
2022-11-04T04:52:04.832Z,8.77
2022-11-04T04:54:31.644Z,7.90
2022-11-04T04:56:58.477Z,9.52
2022-11-04T04:59:25.344Z,8.40
2022-11-04T05:01:52.329Z,7.63
2022-11-04T05:04:19.211Z,9.23
2022-11-04T05:06:46.077Z,9.10
2022-11-04T05:09:13.044Z,13.90
2022-11-04T05:11:39.854Z,11.05
2022-11-04T05:14:06.707Z,13.45
2022-11-04T05:16:37.975Z,13.13
2022-11-04T05:19:07.328Z,11.15
2022-11-04T05:21:34.109Z,15.40
2022-11-04T05:24:00.922Z,11.20
2022-11-04T05:26:28.216Z,12.38
2022-11-04T05:28:55.003Z,12.85
2022-11-04T05:31:21.991Z,12.20
2022-11-04T05:33:48.864Z,14.75
2022-11-04T05:36:16.419Z,11.27
2022-11-04T05:38:43.467Z,18.90
2022-11-04T05:41:11.373Z,13.10
2022-11-04T05:43:38.383Z,11.60
2022-11-04T05:46:05.330Z,9.98
2022-11-04T05:48:36.367Z,12.68
2022-11-04T05:51:06.916Z,16.35
2022-11-04T05:53:33.694Z,11.85
2022-11-04T05:56:00.454Z,14.23
2022-11-04T05:58:27.216Z,15.82
2022-11-04T06:00:53.996Z,11.02
2022-11-04T06:03:20.849Z,14.10
2022-11-04T06:05:47.783Z,11.93
2022-11-04T06:08:14.611Z,12.68
2022-11-04T06:10:42.806Z,9.02
2022-11-04T06:13:09.585Z,12.88
2022-11-04T06:15:36.336Z,12.85
2022-11-04T06:18:03.173Z,9.35
2022-11-04T06:20:29.926Z,10.77
2022-11-04T06:22:56.741Z,11.02
2022-11-04T06:25:23.554Z,9.80
2022-11-04T06:27:50.367Z,10.48
2022-11-04T06:30:17.498Z,10.82
2022-11-04T06:32:44.267Z,8.82
2022-11-04T06:35:11.246Z,12.13
2022-11-04T06:37:37.969Z,10.10
2022-11-04T06:40:05.400Z,10.38
2022-11-04T06:42:32.229Z,10.35
2022-11-04T06:44:59.013Z,7.97
2022-11-04T06:47:25.808Z,7.85
2022-11-04T06:49:52.564Z,9.80
2022-11-04T06:52:19.358Z,8.35
2022-11-04T06:54:47.884Z,9.02
2022-11-04T06:57:14.703Z,10.18
2022-11-04T06:59:41.443Z,7.45
2022-11-04T07:02:10.987Z,10.10
2022-11-04T07:04:37.879Z,7.57
2022-11-04T07:07:04.727Z,10.15
2022-11-04T07:09:31.570Z,9.10
2022-11-04T07:11:58.415Z,9.80
2022-11-04T07:14:25.291Z,9.57
2022-11-04T07:16:52.083Z,10.35
2022-11-04T07:19:19.184Z,11.80
2022-11-04T07:21:47.028Z,12.38
2022-11-04T07:24:13.743Z,7.55
2022-11-04T07:26:42.399Z,11.68
2022-11-04T07:29:11.094Z,13.75
2022-11-04T07:31:38.282Z,11.65
2022-11-04T07:34:05.288Z,11.32
2022-11-04T07:36:32.210Z,11.40
2022-11-04T07:38:59.029Z,7.03
2022-11-04T07:41:25.773Z,7.63
2022-11-04T07:43:52.922Z,10.10
2022-11-04T07:46:19.970Z,7.43
2022-11-04T07:48:46.852Z,9.80
2022-11-04T07:51:16.420Z,10.65
2022-11-04T07:53:43.292Z,8.73
2022-11-04T07:56:14.506Z,8.82
2022-11-04T07:58:41.452Z,7.68
2022-11-04T08:01:17.299Z,10.32
2022-11-04T08:03:44.203Z,11.15
2022-11-04T08:06:12.200Z,6.88
2022-11-04T08:08:39.138Z,7.70
2022-11-04T08:11:16.897Z,5.40
2022-11-04T08:13:45.145Z,9.75
2022-11-04T08:16:14.238Z,5.70
2022-11-04T08:18:41.962Z,7.00
2022-11-04T08:21:09.280Z,8.63
2022-11-04T08:23:36.501Z,6.95
2022-11-04T08:26:07.943Z,8.43
2022-11-04T08:28:35.004Z,8.38
2022-11-04T08:31:04.020Z,6.63
2022-11-04T08:33:31.919Z,8.80
2022-11-04T08:36:05.254Z,6.35
2022-11-04T08:38:32.335Z,6.35
2022-11-04T08:41:00.219Z,9.70
2022-11-04T08:43:27.505Z,9.10
2022-11-04T08:45:54.271Z,7.47
2022-11-04T08:48:21.127Z,8.30
2022-11-04T08:50:55.421Z,5.85
2022-11-04T08:53:22.196Z,5.07
2022-11-04T08:55:49.191Z,6.00
2022-11-04T08:58:16.359Z,9.43
2022-11-04T09:00:43.652Z,9.52
2022-11-04T09:03:10.856Z,6.13
2022-11-04T09:05:45.771Z,5.65
2022-11-04T09:08:16.826Z,4.82
2022-11-04T09:10:44.798Z,6.28
2022-11-04T09:13:12.388Z,5.22
2022-11-04T09:15:39.579Z,5.50
2022-11-04T09:18:06.429Z,9.07
2022-11-04T09:20:33.602Z,7.85
2022-11-04T09:23:00.505Z,5.35
2022-11-04T09:25:27.383Z,5.80
2022-11-04T09:27:54.176Z,7.53
2022-11-04T09:30:21.452Z,9.18
2022-11-04T09:32:52.524Z,5.78
2022-11-04T09:35:19.708Z,5.53
2022-11-04T09:37:47.057Z,8.30
2022-11-04T09:40:16.762Z,6.80
2022-11-04T09:42:43.562Z,8.48
2022-11-04T09:45:21.580Z,9.52
2022-11-04T09:47:50.233Z,4.85
2022-11-04T09:50:26.705Z,6.65
2022-11-04T09:53:09.609Z,7.53
2022-11-04T09:55:44.727Z,4.70
2022-11-04T09:58:12.958Z,4.22
2022-11-04T10:00:40.075Z,6.60
2022-11-04T10:03:26.645Z,4.63
2022-11-04T10:05:59.638Z,5.35
2022-11-04T10:08:42.126Z,6.50
2022-11-04T10:11:30.966Z,3.78
2022-11-04T10:14:13.021Z,2.72
2022-11-04T10:17:02.136Z,4.07
2022-11-04T10:19:52.005Z,6.32
2022-11-04T10:22:35.300Z,5.75
2022-11-04T10:25:16.534Z,6.72
2022-11-04T10:27:45.655Z,4.70
2022-11-04T10:30:21.258Z,4.00
2022-11-04T10:33:10.195Z,4.68
2022-11-04T10:35:41.036Z,3.95
2022-11-04T10:38:17.886Z,8.98
2022-11-04T10:40:48.088Z,5.05
2022-11-04T10:43:19.125Z,5.13
2022-11-04T10:46:15.515Z,3.75
2022-11-04T10:49:08.320Z,6.72
2022-11-04T10:51:35.119Z,6.70
2022-11-04T10:54:02.457Z,6.65
2022-11-04T10:56:31.975Z,8.35
2022-11-04T10:59:00.744Z,6.25
2022-11-04T11:01:28.997Z,5.47
2022-11-04T11:03:56.731Z,15.52
2022-11-04T11:06:36.719Z,6.30
2022-11-04T11:09:29.749Z,6.15
2022-11-04T11:12:44.082Z,8.02
2022-11-04T11:15:00.228Z,7.55
2022-11-04T11:17:33.057Z,5.05
2022-11-04T11:20:08.082Z,3.67
2022-11-04T11:22:37.321Z,5.70
2022-11-04T11:25:29.649Z,4.55
2022-11-04T11:28:19.134Z,8.27
2022-11-04T11:30:46.657Z,7.88
2022-11-04T11:33:16.595Z,6.40
2022-11-04T11:35:49.592Z,8.18
2022-11-04T11:38:34.879Z,5.28
2022-11-04T11:41:24.495Z,7.03
2022-11-04T11:43:53.285Z,5.38
2022-11-04T11:46:24.372Z,6.43
2022-11-04T11:48:52.415Z,5.95
2022-11-04T11:51:32.299Z,6.88
2022-11-04T11:54:25.696Z,7.72
2022-11-04T11:57:13.129Z,7.90
2022-11-04T12:03:21.223Z,4.47
2022-11-04T12:11:44.886Z,5.85
2022-11-04T12:14:49.201Z,7.33
2022-11-04T12:17:22.310Z,4.55
2022-11-04T12:19:55.320Z,6.07
2022-11-04T12:22:42.801Z,2.80
2022-11-04T12:25:31.513Z,4.63
2022-11-04T12:28:30.735Z,3.95
2022-11-04T12:31:00.491Z,3.88
2022-11-04T12:33:49.628Z,4.07
2022-11-04T12:36:26.537Z,4.30
2022-11-04T12:39:06.410Z,3.88
2022-11-04T12:42:20.237Z,6.00
2022-11-04T12:45:21.563Z,3.33
2022-11-04T12:47:48.377Z,5.63
2022-11-04T12:50:30.076Z,3.90
2022-11-04T12:53:31.794Z,2.30
2022-11-04T12:56:09.240Z,2.40
2022-11-04T12:58:48.638Z,3.45
2022-11-04T13:01:42.808Z,3.05
2022-11-04T13:04:21.641Z,2.45
2022-11-04T13:07:12.793Z,3.67
2022-11-04T13:09:45.006Z,2.85
2022-11-04T13:12:14.215Z,4.43
2022-11-04T13:15:05.814Z,5.85
2022-11-04T13:17:37.804Z,2.78
2022-11-04T13:20:43.358Z,3.03
2022-11-04T13:23:16.907Z,2.58
2022-11-04T13:25:48.046Z,1.73
2022-11-04T13:28:16.611Z,2.85
2022-11-04T13:31:03.039Z,2.08
2022-11-04T13:33:42.863Z,1.17
2022-11-04T13:36:20.126Z,1.33
2022-11-04T13:38:54.065Z,0.95
2022-11-04T13:41:27.026Z,1.25
2022-11-04T13:44:01.600Z,1.63
2022-11-04T13:46:33.459Z,2.67
2022-11-04T13:49:03.431Z,1.80
2022-11-04T13:51:47.269Z,1.85
2022-11-04T13:54:34.319Z,1.13
2022-11-04T13:57:23.757Z,1.00
2022-11-04T14:00:15.658Z,3.38
2022-11-04T14:02:45.941Z,2.17
2022-11-04T14:05:41.476Z,1.50
2022-11-04T14:08:16.014Z,2.47
2022-11-04T14:10:49.802Z,1.98
2022-11-04T14:13:37.601Z,2.47
2022-11-04T14:16:05.194Z,1.77
2022-11-04T14:18:42.022Z,3.40
2022-11-04T14:21:13.579Z,1.02
2022-11-04T14:23:47.736Z,2.78
2022-11-04T14:26:15.970Z,3.15
2022-11-04T14:28:45.031Z,2.63
2022-11-04T14:31:17.738Z,1.60
2022-11-04T14:33:51.480Z,2.50
2022-11-04T14:36:21.384Z,1.67
2022-11-04T14:39:00.594Z,1.98
2022-11-04T14:41:49.649Z,1.83
2022-11-04T14:44:39.643Z,1.98
2022-11-04T14:47:26.658Z,1.77
2022-11-04T14:50:00.663Z,1.73
2022-11-04T14:52:32.442Z,2.33
2022-11-04T14:55:17.441Z,2.70
2022-11-04T14:57:45.280Z,2.15
2022-11-04T15:00:53.821Z,1.48
2022-11-04T15:06:35.289Z,5.07
2022-11-04T15:09:28.249Z,1.33
2022-11-04T15:12:29.620Z,3.58
2022-11-04T15:14:56.741Z,2.22
2022-11-04T15:17:24.862Z,3.08
2022-11-04T15:19:52.686Z,3.10
2022-11-04T15:22:19.761Z,4.90
2022-11-04T15:24:46.725Z,3.28
2022-11-04T15:27:18.396Z,3.45
2022-11-04T15:30:02.785Z,1.30
2022-11-04T15:32:29.844Z,2.20
2022-11-04T15:34:56.610Z,4.47
2022-11-04T15:37:24.202Z,5.50
2022-11-04T15:39:52.337Z,1.88
2022-11-04T15:42:37.097Z,2.85
2022-11-04T15:45:22.769Z,3.38
2022-11-04T15:47:50.770Z,1.85
2022-11-04T15:50:24.649Z,2.47
2022-11-04T15:52:55.961Z,4.15
2022-11-04T15:55:24.342Z,2.45
2022-11-04T15:57:51.640Z,2.63
2022-11-04T16:00:22.510Z,3.33
2022-11-04T16:02:53.435Z,4.55
2022-11-04T16:05:26.085Z,2.90
2022-11-04T16:07:53.830Z,2.00
2022-11-04T16:10:36.763Z,2.03
2022-11-04T16:13:16.431Z,4.67
2022-11-04T16:15:59.775Z,3.25
2022-11-04T16:18:37.877Z,1.30
2022-11-04T16:21:10.138Z,2.40
2022-11-04T16:23:43.615Z,3.33
2022-11-04T16:26:10.512Z,2.28
2022-11-04T16:28:38.494Z,1.02
2022-11-04T16:31:21.338Z,2.67
2022-11-04T16:33:49.431Z,2.13
2022-11-04T16:36:28.543Z,2.15
2022-11-04T16:39:08.104Z,2.03
2022-11-04T16:41:36.803Z,3.55
2022-11-04T16:44:04.628Z,3.85
2022-11-04T16:46:32.911Z,3.20
2022-11-04T16:48:59.909Z,4.82
2022-11-04T16:51:26.739Z,1.95
2022-11-04T16:53:54.055Z,1.65
2022-11-04T16:56:24.687Z,2.28
2022-11-04T16:58:52.500Z,3.20
2022-11-04T17:01:19.733Z,5.07
2022-11-04T17:03:46.588Z,5.07
2022-11-04T17:06:14.471Z,4.47
2022-11-04T17:08:44.148Z,3.95
2022-11-04T17:11:11.136Z,4.00
2022-11-04T17:13:38.195Z,6.68
2022-11-04T17:16:05.955Z,4.65
2022-11-04T17:18:33.374Z,8.30
2022-11-04T17:21:01.204Z,6.75
2022-11-04T17:23:27.960Z,6.70
2022-11-04T17:25:54.690Z,6.68
2022-11-04T17:28:21.493Z,6.55
2022-11-04T17:30:48.356Z,5.55
2022-11-04T17:33:18.521Z,5.60
2022-11-04T17:35:48.358Z,4.78
2022-11-04T17:38:15.561Z,5.95
2022-11-04T17:41:01.225Z,5.03
2022-11-04T17:43:46.468Z,5.95
2022-11-04T17:46:31.924Z,6.22
2022-11-04T17:48:58.811Z,4.80
2022-11-04T17:51:25.558Z,4.88
2022-11-04T17:53:52.436Z,7.10
2022-11-04T17:56:20.949Z,11.82
2022-11-04T17:58:48.292Z,7.30
2022-11-04T18:01:16.063Z,6.68
2022-11-04T18:03:43.496Z,4.85
2022-11-04T18:06:10.424Z,4.60
2022-11-04T18:08:37.228Z,5.25
2022-11-04T18:11:08.777Z,4.10
2022-11-04T18:13:35.731Z,5.68
2022-11-04T18:16:12.709Z,6.00
2022-11-04T18:18:39.835Z,7.45
2022-11-04T18:21:07.745Z,5.05
2022-11-04T18:23:34.669Z,4.82
2022-11-04T18:26:02.853Z,7.65
2022-11-04T18:28:29.858Z,4.82
2022-11-04T18:30:56.768Z,4.13
2022-11-04T18:33:23.512Z,5.85
2022-11-04T18:35:50.286Z,8.20
2022-11-04T18:38:17.464Z,7.22
2022-11-04T18:40:44.270Z,4.93
2022-11-04T18:43:11.354Z,5.43
2022-11-04T18:45:38.480Z,6.07
2022-11-04T18:48:05.574Z,7.22
2022-11-04T18:50:32.365Z,7.57
2022-11-04T18:52:59.166Z,6.35
2022-11-04T18:55:26.060Z,9.18
2022-11-04T18:57:55.917Z,12.65
2022-11-04T19:00:22.954Z,10.48
2022-11-04T19:02:50.402Z,6.47
2022-11-04T19:05:17.685Z,9.55
2022-11-04T19:07:44.749Z,9.45
2022-11-04T19:10:12.027Z,9.02
2022-11-04T19:12:57.805Z,8.52
2022-11-04T19:15:24.957Z,10.73
2022-11-04T19:17:51.799Z,11.90
2022-11-04T19:20:18.847Z,11.50
2022-11-04T19:22:45.728Z,12.25
2022-11-04T19:25:12.496Z,12.63
2022-11-04T19:27:39.421Z,11.52
2022-11-04T19:30:06.656Z,11.07
2022-11-04T19:32:33.495Z,12.15
2022-11-04T19:35:00.355Z,18.05
2022-11-04T19:37:27.956Z,15.32
2022-11-04T19:39:54.909Z,15.65
2022-11-04T19:42:41.656Z,15.65
2022-11-04T19:45:09.038Z,14.13
2022-11-04T19:47:35.802Z,18.65
2022-11-04T19:50:02.682Z,18.95
2022-11-04T19:52:29.490Z,16.38
2022-11-04T19:54:56.231Z,19.27
2022-11-04T19:57:22.988Z,22.10
2022-11-04T19:59:49.926Z,22.05
2022-11-04T20:02:16.832Z,23.75
2022-11-04T20:04:43.912Z,25.10
2022-11-04T20:07:10.769Z,23.27
2022-11-04T20:09:37.622Z,22.70
2022-11-04T20:12:23.296Z,16.27
2022-11-04T20:15:18.772Z,18.80
2022-11-04T20:17:46.259Z,19.45
2022-11-04T20:20:13.214Z,19.10
2022-11-04T20:22:40.001Z,19.15
2022-11-04T20:25:07.274Z,22.02
2022-11-04T20:27:34.125Z,21.23
2022-11-04T20:30:00.865Z,33.20
2022-11-04T20:32:27.673Z,23.85
2022-11-04T20:34:54.480Z,27.35
2022-11-04T20:37:21.237Z,23.50
2022-11-04T20:39:48.104Z,23.80
2022-11-04T20:42:14.887Z,25.08
2022-11-04T20:44:41.703Z,23.85
2022-11-04T20:47:08.432Z,23.38
2022-11-04T20:49:35.274Z,24.58
2022-11-04T20:52:02.157Z,24.30
2022-11-04T20:54:29.002Z,26.95
2022-11-04T20:56:55.923Z,22.88
2022-11-04T20:59:22.812Z,23.27
2022-11-04T21:01:50.216Z,25.33
2022-11-04T21:04:19.210Z,25.45
2022-11-04T21:06:49.624Z,34.92
2022-11-04T21:09:17.710Z,23.55
2022-11-04T21:11:44.727Z,25.08
2022-11-04T21:14:14.076Z,26.60
2022-11-04T21:16:40.918Z,28.33
2022-11-04T21:19:08.095Z,30.48
2022-11-04T21:21:35.040Z,30.10
2022-11-04T21:24:05.962Z,29.00
2022-11-04T21:26:34.155Z,28.33
2022-11-04T21:29:05.935Z,28.85
2022-11-04T21:31:33.656Z,30.95
2022-11-04T21:34:01.799Z,32.72
2022-11-04T21:36:28.710Z,37.13
2022-11-04T21:38:55.746Z,37.53
2022-11-04T21:41:26.953Z,30.35
2022-11-04T21:44:01.307Z,31.98
2022-11-04T21:46:29.188Z,30.70
2022-11-04T21:48:56.199Z,31.35
2022-11-04T21:51:24.748Z,30.73
2022-11-04T21:53:51.682Z,28.50
2022-11-04T21:56:21.154Z,27.02
2022-11-04T21:58:47.976Z,29.20
2022-11-04T22:01:17.002Z,27.63
2022-11-04T22:03:44.148Z,28.50
2022-11-04T22:06:13.952Z,24.15
2022-11-04T22:08:44.972Z,24.38
2022-11-04T22:11:16.451Z,24.38
2022-11-04T22:13:43.368Z,27.08
2022-11-04T22:16:20.508Z,22.33
2022-11-04T22:18:47.391Z,20.65
2022-11-04T22:21:15.517Z,22.80
2022-11-04T22:23:42.529Z,20.38
2022-11-04T22:26:13.830Z,23.00
2022-11-04T22:28:40.755Z,22.60
2022-11-04T22:31:08.877Z,22.23
2022-11-04T22:33:35.753Z,22.15
2022-11-04T22:36:04.461Z,21.90
2022-11-04T22:38:32.681Z,21.20
2022-11-04T22:40:59.787Z,22.13
2022-11-04T22:43:29.086Z,20.75
2022-11-04T22:45:56.581Z,21.77
2022-11-04T22:48:23.393Z,22.35
2022-11-04T22:50:57.663Z,18.08
2022-11-04T22:53:24.688Z,19.05
2022-11-04T22:55:52.024Z,20.10
2022-11-04T22:58:18.907Z,20.60
2022-11-04T23:00:46.233Z,19.77
2022-11-04T23:03:13.444Z,22.48
2022-11-04T23:05:40.563Z,20.40
2022-11-04T23:08:07.394Z,21.73
2022-11-04T23:10:52.700Z,19.80
2022-11-04T23:13:38.104Z,21.60
2022-11-04T23:16:23.360Z,19.90
2022-11-04T23:18:51.030Z,18.08
2022-11-04T23:21:37.790Z,16.40
2022-11-04T23:24:23.383Z,22.90
2022-11-04T23:26:50.340Z,20.58
2022-11-04T23:29:35.624Z,18.05
2022-11-04T23:32:02.562Z,17.90
2022-11-04T23:34:47.804Z,15.70
2022-11-04T23:37:14.721Z,16.42
2022-11-04T23:39:48.092Z,16.90
2022-11-04T23:42:19.799Z,20.08
2022-11-04T23:45:12.580Z,19.00
2022-11-04T23:48:02.004Z,18.63
2022-11-04T23:50:49.590Z,18.08
2022-11-04T23:53:35.295Z,19.52
2022-11-04T23:56:20.578Z,19.38
2022-11-04T23:59:05.920Z,16.65
